Time;durP1;ratioP1;P1;durP2;ratioP2;P2;SDS_P1;SDS_P2;PMS_P1;PMS_P2;Temp;Humidity;BMP_temperature;BMP_pressure;BME280_temperature;BME280_humidity;BME280_pressure;Samples;Min_cycle;Max_cycle;Signal;HPM_P1;HPM_P2
2023/04/02 00:00:09;;;;;;;;;4.67;3.00;;;;;13.10;100.00;101048.72;5011978;28;46041;-74
2023/04/02 00:02:44;;;;;;;;;4.33;4.00;;;;;13.06;100.00;101034.59;5011719;28;45629;-74
2023/04/02 00:05:15;;;;;;;;;6.00;4.00;;;;;13.07;100.00;101049.59;5010257;28;47245;-75
2023/04/02 00:07:43;;;;;;;;;3.67;3.67;;;;;13.07;100.00;101049.59;5009775;28;45368;-74
2023/04/02 00:10:39;;;;;;;;;5.67;4.00;;;;;13.06;100.00;101052.25;4994413;28;45538;-74
2023/04/02 00:13:21;;;;;;;;;4.67;2.00;;;;;13.04;100.00;101051.34;4983793;28;45664;-75
2023/04/02 00:15:49;;;;;;;;;5.00;3.00;;;;;13.06;100.00;101061.09;4999432;28;47588;-75
2023/04/02 00:18:20;;;;;;;;;4.00;3.00;;;;;13.06;100.00;101055.78;5001244;28;45355;-75
2023/04/02 00:20:50;;;;;;;;;3.00;3.00;;;;;13.04;100.00;101056.66;4982345;28;45460;-75
2023/04/02 00:23:15;;;;;;;;;5.33;5.33;;;;;13.01;100.00;101065.50;4983050;28;45619;-75
2023/04/02 00:25:44;;;;;;;;;6.67;6.00;;;;;13.00;100.00;101060.19;5013136;28;46613;-74
2023/04/02 00:28:12;;;;;;;;;3.00;1.00;;;;;12.98;100.00;101065.47;5006649;28;45352;-74
2023/04/02 00:30:48;;;;;;;;;3.67;3.67;;;;;12.99;100.00;101071.66;4990334;28;45485;-75
2023/04/02 00:33:17;;;;;;;;;3.67;3.00;;;;;12.96;100.00;101059.28;5004479;28;45535;-75
2023/04/02 00:35:42;;;;;;;;;3.00;3.00;;;;;12.97;100.00;101074.31;5006731;28;46473;-75
2023/04/02 00:38:19;;;;;;;;;4.00;3.00;;;;;12.98;100.00;101077.84;4983215;28;70075;-75
2023/04/02 00:40:45;;;;;;;;;4.67;4.00;;;;;12.93;100.00;101082.22;4986012;28;45557;-74
2023/04/02 00:43:15;;;;;;;;;5.00;3.33;;;;;12.92;100.00;101075.16;4982286;28;48329;-75
2023/04/02 00:45:49;;;;;;;;;5.67;5.00;;;;;12.92;100.00;101085.75;4992116;28;47507;-75
2023/04/02 00:48:25;;;;;;;;;3.33;3.33;;;;;12.90;100.00;101082.22;4981463;28;45641;-75
2023/04/02 00:50:52;;;;;;;;;3.00;3.00;;;;;12.86;100.00;101086.59;4997912;28;45524;-75
2023/04/02 00:53:23;;;;;;;;;4.33;4.33;;;;;12.78;100.00;101081.28;5008965;28;45170;-74
2023/04/02 00:55:49;;;;;;;;;3.00;3.00;;;;;12.78;100.00;101083.00;4992973;28;47642;-75
2023/04/02 00:58:29;;;;;;;;;2.33;2.33;;;;;12.80;100.00;101086.56;5014567;28;45290;-75
2023/04/02 01:00:55;;;;;;;;;5.00;5.00;;;;;12.81;100.00;101091.00;5011637;28;45264;-74
2023/04/02 01:03:27;;;;;;;;;4.00;4.00;;;;;12.83;100.00;101097.19;5008243;28;45313;-74
2023/04/02 01:06:09;;;;;;;;;9.00;3.33;;;;;12.82;100.00;101091.00;5006156;28;47455;-75
2023/04/02 01:08:58;;;;;;;;;4.67;3.33;;;;;12.81;100.00;101102.47;5008130;28;45315;-74
2023/04/02 01:11:45;;;;;;;;;4.00;2.33;;;;;12.78;100.00;101101.56;5000402;28;46381;-74
2023/04/02 01:14:29;;;;;;;;;4.00;4.00;;;;;12.76;100.00;101103.31;5013605;28;45558;-74
2023/04/02 01:17:17;;;;;;;;;2.00;2.00;;;;;12.73;100.00;101104.22;5007849;28;46500;-74
2023/04/02 01:20:22;;;;;;;;;1.00;1.00;;;;;12.70;100.00;101108.59;5000834;28;45309;-74
2023/04/02 01:23:01;;;;;;;;;2.00;2.00;;;;;12.66;100.00;101114.75;4990498;28;45330;-75
2023/04/02 01:25:38;;;;;;;;;1.00;1.00;;;;;12.63;100.00;101110.31;5002794;28;45454;-75
2023/04/02 01:28:05;;;;;;;;;1.33;1.33;;;;;12.65;100.00;101112.97;5009327;28;45368;-75
2023/04/02 01:30:34;;;;;;;;;2.00;1.00;;;;;12.62;100.00;101112.94;4996992;28;45588;-75
2023/04/02 01:33:00;;;;;;;;;2.00;1.67;;;;;12.63;100.00;101110.31;5000811;28;45566;-74
2023/04/02 01:35:27;;;;;;;;;1.00;1.00;;;;;12.63;100.00;101107.66;4984169;28;45449;-74
2023/04/02 01:38:05;;;;;;;;;2.00;2.00;;;;;12.65;100.00;101118.28;4996451;28;46417;-74
2023/04/02 01:40:46;;;;;;;;;2.00;2.00;;;;;12.67;100.00;101121.81;5009339;28;45499;-74
2023/04/02 01:43:22;;;;;;;;;1.00;1.00;;;;;12.66;100.00;101122.69;4991180;28;45218;-75
2023/04/02 01:45:47;;;;;;;;;2.00;1.00;;;;;12.66;100.00;101130.63;4993591;28;45483;-75
2023/04/02 01:48:18;;;;;;;;;1.00;1.00;;;;;12.62;100.00;101123.53;4989482;28;70159;-74
2023/04/02 01:50:46;;;;;;;;;1.33;1.33;;;;;12.59;100.00;101129.72;5010618;28;45505;-75
2023/04/02 01:53:14;;;;;;;;;2.33;1.00;;;;;12.57;100.00;101126.19;4992178;28;45476;-75
2023/04/02 01:56:06;;;;;;;;;3.00;1.00;;;;;12.53;100.00;101127.03;4992828;28;45416;-74
2023/04/02 01:58:32;;;;;;;;;1.00;1.00;;;;;12.52;100.00;101127.91;5003778;28;47410;-74
2023/04/02 02:01:01;;;;;;;;;2.00;2.00;;;;;12.53;100.00;101127.91;5006080;28;45394;-74
2023/04/02 02:03:26;;;;;;;;;1.00;1.00;;;;;12.53;100.00;101135.84;5009570;28;45336;-75
2023/04/02 02:05:52;;;;;;;;;0.00;0.00;;;;;12.53;100.00;101127.03;4985618;28;45640;-75
2023/04/02 02:08:39;;;;;;;;;2.00;1.00;;;;;12.50;100.00;101134.94;5003033;28;59365;-74
2023/04/02 02:11:05;;;;;;;;;0.00;0.00;;;;;12.50;100.00;101140.22;4984161;28;45428;-74
2023/04/02 02:13:31;;;;;;;;;0.00;0.00;;;;;12.47;100.00;101138.44;5006582;28;45477;-74
2023/04/02 02:16:00;;;;;;;;;2.00;2.00;;;;;12.45;100.00;101145.47;5011758;28;45623;-75
2023/04/02 02:18:26;;;;;;;;;1.33;1.33;;;;;12.43;100.00;101143.72;4993256;28;47708;-74
2023/04/02 02:20:52;;;;;;;;;0.67;0.67;;;;;12.41;100.00;101146.34;5007383;28;45376;-74
2023/04/02 02:23:18;;;;;;;;;1.00;1.00;;;;;12.39;100.00;101145.44;4993813;28;45487;-75
2023/04/02 02:25:44;;;;;;;;;2.00;0.00;;;;;12.37;100.00;101149.84;5012541;28;45430;-75
2023/04/02 02:28:30;;;;;;;;;1.00;1.00;;;;;12.38;100.00;101154.25;4982793;28;46628;-75
2023/04/02 02:31:05;;;;;;;;;1.00;1.00;;;;;12.40;100.00;101160.44;4991028;28;45366;-75
2023/04/02 02:33:39;;;;;;;;;1.00;1.00;;;;;12.41;100.00;101156.94;5015569;28;45448;-75
2023/04/02 02:36:14;;;;;;;;;0.00;0.00;;;;;12.40;100.00;101171.03;5016812;28;45539;-75
2023/04/02 02:39:02;;;;;;;;;1.00;1.00;;;;;12.38;100.00;101167.50;4992807;28;47349;-74
2023/04/02 02:41:32;;;;;;;;;1.33;1.33;;;;;12.38;100.00;101163.97;5012280;28;45316;-75
2023/04/02 02:44:12;;;;;;;;;1.00;1.00;;;;;12.34;100.00;101170.97;5014332;28;45509;-74
2023/04/02 02:46:49;;;;;;;;;1.00;1.00;;;;;12.32;100.00;101170.09;5000759;28;45416;-75
2023/04/02 02:49:18;;;;;;;;;0.00;0.00;;;;;12.30;100.00;101177.13;4987699;28;46676;-74
2023/04/02 02:51:49;;;;;;;;;0.33;0.33;;;;;12.31;100.00;101181.56;4993498;28;45597;-75
2023/04/02 02:54:17;;;;;;;;;0.00;0.00;;;;;12.26;100.00;101181.50;4982161;28;45439;-75
2023/04/02 02:56:47;;;;;;;;;0.33;0.33;;;;;12.25;100.00;101189.41;5006051;28;45633;-75
2023/04/02 02:59:13;;;;;;;;;2.00;1.00;;;;;12.23;100.00;101196.47;4999109;28;47460;-75
2023/04/02 03:01:40;;;;;;;;;2.00;0.67;;;;;12.22;100.00;101190.28;4999179;28;53436;-74
2023/04/02 03:04:05;;;;;;;;;3.00;0.00;;;;;12.20;100.00;101184.09;4996442;28;45639;-75
2023/04/02 03:06:31;;;;;;;;;1.00;1.00;;;;;12.19;100.00;101179.66;4998454;28;45577;-75
2023/04/02 03:09:12;;;;;;;;;0.33;0.00;;;;;12.19;100.00;101187.59;5011976;28;71346;-74
2023/04/02 03:12:12;;;;;;;;;1.33;0.00;;;;;12.16;100.00;101197.28;4991014;28;45544;-75
2023/04/02 03:14:43;;;;;;;;;0.00;0.00;;;;;12.13;100.00;101199.91;4973316;28;45396;-75
2023/04/02 03:17:18;;;;;;;;;0.33;0.33;;;;;12.09;100.00;101195.44;4997840;28;45444;-75
2023/04/02 03:19:53;;;;;;;;;0.00;0.00;;;;;12.05;100.00;101198.06;4999199;28;46486;-75
2023/04/02 03:22:25;;;;;;;;;0.00;0.00;;;;;12.03;100.00;101198.91;5015863;28;45467;-75
2023/04/02 03:25:12;;;;;;;;;0.67;0.67;;;;;12.01;100.00;101213.88;5017111;28;45466;-75
2023/04/02 03:27:40;;;;;;;;;1.00;1.00;;;;;12.01;100.00;101222.72;5005756;28;45249;-75
2023/04/02 03:30:26;;;;;;;;;0.33;0.33;;;;;12.03;100.00;101230.66;5010513;28;45416;-74
2023/04/02 03:32:54;;;;;;;;;1.33;0.67;;;;;12.03;100.00;101223.59;4995094;28;45395;-74
2023/04/02 03:35:25;;;;;;;;;0.00;0.00;;;;;12.04;100.00;101227.19;5009594;28;45475;-74
2023/04/02 03:37:59;;;;;;;;;0.67;0.67;;;;;12.04;100.00;101235.13;4997673;28;45526;-75
2023/04/02 03:40:32;;;;;;;;;1.00;1.00;;;;;12.03;100.00;101233.31;4995078;28;47315;-74
2023/04/02 03:43:13;;;;;;;;;1.00;1.00;;;;;12.05;100.00;101235.13;4992601;28;45254;-76
2023/04/02 03:45:42;;;;;;;;;2.33;2.00;;;;;12.04;100.00;101235.13;5012807;28;45340;-75
2023/04/02 03:48:13;;;;;;;;;4.33;2.00;;;;;12.05;100.00;101251.00;5008286;28;45526;-74
2023/04/02 03:50:44;;;;;;;;;4.00;2.00;;;;;12.06;100.00;101241.31;5017060;28;46629;-75
2023/04/02 03:53:10;;;;;;;;;2.33;2.33;;;;;12.05;100.00;101251.00;5010310;28;45566;-74
2023/04/02 03:55:37;;;;;;;;;5.00;3.00;;;;;12.03;100.00;101255.38;4993767;28;45531;-75
2023/04/02 03:58:20;;;;;;;;;4.67;4.00;;;;;12.02;100.00;101260.66;5006006;28;45561;-74
2023/04/02 04:01:26;;;;;;;;;3.33;3.33;;;;;12.01;100.00;101267.72;4980833;28;47872;-74
2023/04/02 04:03:56;;;;;;;;;6.25;3.75;;;;;11.98;100.00;101270.31;4969518;28;45530;-75
2023/04/02 04:06:28;;;;;;;;;3.67;3.67;;;;;11.88;100.00;101271.09;4944243;28;45335;-74
2023/04/02 04:08:59;;;;;;;;;6.33;4.00;;;;;11.88;100.00;101270.16;4973333;28;45571;-74
2023/04/02 04:11:32;;;;;;;;;7.00;4.00;;;;;11.85;100.00;101267.50;5003492;28;47507;-75
2023/04/02 04:14:18;;;;;;;;;11.00;4.00;;;;;11.89;100.00;101279.91;4996309;28;45353;-76
2023/04/02 04:17:03;;;;;;;;;8.67;3.67;;;;;11.87;100.00;101278.97;5000643;28;45420;-75
2023/04/02 04:19:40;;;;;;;;;4.33;3.00;;;;;11.87;100.00;101273.69;4993430;28;45486;-75
2023/04/02 04:22:17;;;;;;;;;8.00;4.00;;;;;11.86;100.00;101280.75;5017285;28;46244;-75
2023/04/02 04:24:44;;;;;;;;;6.75;6.75;;;;;11.85;100.00;101288.66;4994336;28;45518;-75
2023/04/02 04:27:35;;;;;;;;;7.75;5.00;;;;;11.82;100.00;101292.16;5016110;28;45498;-75
2023/04/02 04:30:17;;;;;;;;;5.00;3.33;;;;;11.83;100.00;101295.72;5011223;28;45416;-75
2023/04/02 04:33:04;;;;;;;;;5.67;5.67;;;;;11.83;100.00;101293.94;5007991;28;46320;-75
2023/04/02 04:35:31;;;;;;;;;8.00;4.00;;;;;11.81;100.00;101290.34;4990887;28;45571;-74
2023/04/02 04:38:03;;;;;;;;;4.00;3.00;;;;;11.80;100.00;101289.47;5004204;28;45399;-75
2023/04/02 04:40:32;;;;;;;;;5.00;5.00;;;;;11.80;100.00;101299.16;5004802;28;45569;-75
2023/04/02 04:43:02;;;;;;;;;7.75;5.50;;;;;11.80;100.00;101305.34;4983913;28;47319;-76
2023/04/02 04:45:42;;;;;;;;;9.75;7.75;;;;;11.82;100.00;101309.78;4984292;28;45888;-75
2023/04/02 04:48:27;;;;;;;;;5.00;5.00;;;;;11.81;100.00;101311.50;4997763;28;45498;-75
2023/04/02 04:50:55;;;;;;;;;9.00;5.75;;;;;11.81;100.00;101322.09;4996032;28;45631;-75
2023/04/02 04:53:23;;;;;;;;;9.25;5.25;;;;;11.82;100.00;101318.59;5016920;28;46498;-75
2023/04/02 04:55:51;;;;;;;;;8.50;6.50;;;;;11.83;100.00;101331.00;5007178;28;45336;-75
2023/04/02 04:58:26;;;;;;;;;11.00;7.25;;;;;11.82;100.00;101315.97;4993115;28;45327;-76
2023/04/02 05:00:54;;;;;;;;;8.00;5.00;;;;;11.80;100.00;101328.25;4992129;28;45370;-75
2023/04/02 05:03:36;;;;;;;;;7.75;7.75;;;;;11.80;100.00;101330.91;4988771;28;46741;-75
2023/04/02 05:06:37;;;;;;;;;7.50;6.75;;;;;11.78;100.00;101335.31;5008329;28;45536;-75
2023/04/02 05:09:10;;;;;;;;;14.00;7.00;;;;;11.75;100.00;101340.53;5016754;28;45329;-75
2023/04/02 05:11:44;;;;;;;;;6.33;5.67;;;;;11.72;100.00;101340.50;5001703;28;45562;-75
2023/04/02 05:15:00;;;;;;;;;9.00;8.00;;;;;11.71;100.00;101346.63;4991430;28;47378;-75
2023/04/02 05:17:30;;;;;;;;;7.00;7.00;;;;;11.70;100.00;101358.09;4945434;28;45453;-75
2023/04/02 05:20:08;;;;;;;;;9.25;7.50;;;;;11.66;100.00;101356.25;4978365;28;45400;-75
2023/04/02 05:22:42;;;;;;;;;9.00;8.67;;;;;11.66;100.00;101358.91;5016180;28;45467;-75
2023/04/02 05:25:15;;;;;;;;;9.00;6.00;;;;;11.67;100.00;101369.53;5013733;28;47476;-75
2023/04/02 05:27:56;;;;;;;;;11.75;7.75;;;;;11.69;100.00;101369.53;4996894;28;45378;-75
2023/04/02 05:30:27;;;;;;;;;8.50;7.50;;;;;11.69;100.00;101375.72;4993035;28;45347;-75
2023/04/02 05:33:03;;;;;;;;;7.00;7.00;;;;;11.71;100.00;101370.44;5012204;28;45334;-75
2023/04/02 05:35:44;;;;;;;;;9.00;7.00;;;;;11.74;100.00;101378.44;4991769;28;47593;-75
2023/04/02 05:38:19;;;;;;;;;8.00;6.25;;;;;11.74;100.00;101389.91;5002435;28;45276;-75
2023/04/02 05:40:47;;;;;;;;;10.25;8.50;;;;;11.77;100.00;101386.41;5001262;28;45448;-75
2023/04/02 05:43:16;;;;;;;;;8.00;8.00;;;;;11.77;100.00;101395.25;4984416;28;45502;-75
2023/04/02 05:45:44;;;;;;;;;9.67;8.00;;;;;11.71;100.00;101404.84;4986830;28;46657;-75
2023/04/02 05:48:21;;;;;;;;;8.00;5.50;;;;;11.65;100.00;101399.44;5017770;28;45460;-75
2023/04/02 05:50:50;;;;;;;;;11.00;8.00;;;;;11.66;100.00;101406.50;4998455;28;45722;-74
2023/04/02 05:53:24;;;;;;;;;8.33;7.00;;;;;11.70;100.00;101411.88;5009731;28;45566;-75
2023/04/02 05:55:53;;;;;;;;;9.00;5.00;;;;;11.71;100.00;101407.47;5019174;28;47562;-75
2023/04/02 05:58:36;;;;;;;;;4.33;4.00;;;;;11.73;100.00;101413.72;5012574;28;45294;-75
2023/04/02 06:01:32;;;;;;;;;9.00;7.00;;;;;11.68;100.00;101416.28;4990805;28;45527;-76
2023/04/02 06:04:16;;;;;;;;;7.00;5.00;;;;;11.63;100.00;101427.66;5004003;28;45207;-75
2023/04/02 06:06:46;;;;;;;;;4.67;4.67;;;;;11.60;100.00;101420.53;4985541;28;46371;-74
2023/04/02 06:09:30;;;;;;;;;8.25;7.00;;;;;11.62;100.00;101424.13;4988730;28;45511;-75
2023/04/02 06:12:03;;;;;;;;;4.33;4.33;;;;;11.62;100.00;101432.06;5001219;28;45322;-75
2023/04/02 06:14:29;;;;;;;;;7.00;3.00;;;;;11.64;100.00;101432.94;4996398;28;45547;-75
2023/04/02 06:16:54;;;;;;;;;4.00;4.00;;;;;11.66;100.00;101432.97;5000943;28;47253;-75
2023/04/02 06:19:25;;;;;;;;;3.67;3.00;;;;;11.68;100.00;101439.19;4997347;28;45341;-76
2023/04/02 06:21:58;;;;;;;;;4.33;4.00;;;;;11.66;100.00;101443.56;5011790;28;45498;-75
2023/04/02 06:24:25;;;;;;;;;4.67;3.67;;;;;11.63;100.00;101447.06;4995618;28;45451;-75
2023/04/02 06:26:55;;;;;;;;;7.00;4.67;;;;;11.62;100.00;101452.31;4998233;28;47601;-74
2023/04/02 06:29:38;;;;;;;;;9.00;7.00;;;;;11.60;100.00;101454.03;4993443;28;45422;-74
2023/04/02 06:32:06;;;;;;;;;5.00;3.75;;;;;11.63;100.00;101449.69;4996850;28;45278;-75
2023/04/02 06:34:31;;;;;;;;;4.50;4.50;;;;;11.65;100.00;101455.88;5013354;28;45419;-75
2023/04/02 06:37:00;;;;;;;;;5.00;5.00;;;;;11.69;100.00;101451.56;5009057;28;46652;-75
2023/04/02 06:39:26;;;;;;;;;7.67;4.00;;;;;11.71;100.00;101463.03;5005320;28;45336;-75
2023/04/02 06:41:59;;;;;;;;;4.67;4.67;;;;;11.70;100.00;101456.84;5015159;28;45382;-75
2023/04/02 06:44:28;;;;;;;;;6.33;4.00;;;;;11.76;100.00;101475.47;5002946;28;45371;-76
2023/04/02 06:46:58;;;;;;;;;10.33;6.33;;;;;11.75;100.00;101465.75;4994372;28;46650;-75
2023/04/02 06:49:33;;;;;;;;;8.67;5.00;;;;;11.74;100.00;101481.63;4996886;28;45480;-75
2023/04/02 06:52:00;;;;;;;;;4.67;4.67;;;;;11.70;100.00;101478.03;4998924;28;45326;-75
2023/04/02 06:54:26;;;;;;;;;5.00;5.00;;;;;11.70;100.00;101478.03;4994299;28;45467;-75
2023/04/02 06:56:55;;;;;;;;;7.25;5.00;;;;;11.71;100.00;101485.09;5013961;28;69178;-76
2023/04/02 06:59:21;;;;;;;;;4.00;4.00;;;;;11.72;100.00;101491.28;5008091;28;45415;-76
2023/04/02 07:01:58;;;;;;;;;6.67;5.00;;;;;11.75;100.00;101492.22;4990200;28;45521;-75
2023/04/02 07:04:23;;;;;;;;;5.00;5.00;;;;;11.76;100.00;101504.56;4988525;28;45448;-75
2023/04/02 07:06:49;;;;;;;;;7.67;4.00;;;;;11.68;100.00;101500.03;5015572;28;70614;-74
2023/04/02 07:09:15;;;;;;;;;7.00;5.00;;;;;11.59;100.00;101510.44;5011512;28;45379;-76
2023/04/02 07:11:41;;;;;;;;;5.50;5.50;;;;;11.50;100.00;101506.78;5012928;28;67116;-74
2023/04/02 07:14:10;;;;;;;;;7.33;4.00;;;;;11.48;100.00;101518.19;5012533;28;59769;-74
2023/04/02 07:16:35;;;;;;;;;8.00;4.00;;;;;11.43;100.00;101512.81;5017396;28;47760;-74
2023/04/02 07:19:02;;;;;;;;;4.00;4.00;;;;;11.43;100.00;101522.50;5009924;28;60833;-74
2023/04/02 07:21:28;;;;;;;;;7.00;5.00;;;;;11.38;100.00;101527.69;5012774;28;45601;-73
2023/04/02 07:23:54;;;;;;;;;8.00;4.33;;;;;11.34;100.00;101531.13;5016157;28;46008;-75
2023/04/02 07:26:22;;;;;;;;;7.67;5.00;;;;;11.34;100.00;101533.78;5016405;28;45656;-74
2023/04/02 07:28:48;;;;;;;;;4.25;4.25;;;;;11.34;100.00;101535.53;4999181;28;45357;-75
2023/04/02 07:31:16;;;;;;;;;6.33;4.00;;;;;11.36;100.00;101539.13;5013671;28;45261;-75
2023/04/02 07:33:42;;;;;;;;;8.00;4.00;;;;;11.38;100.00;101548.84;5009957;28;45526;-75
2023/04/02 07:36:12;;;;;;;;;6.67;5.00;;;;;11.39;100.00;101550.63;5013834;28;62864;-75
2023/04/02 07:38:37;;;;;;;;;5.67;5.00;;;;;11.40;100.00;101556.81;5016567;28;45549;-74
2023/04/02 07:41:06;;;;;;;;;8.00;4.00;;;;;11.38;100.00;101561.19;5010279;28;62002;-73
2023/04/02 07:43:31;;;;;;;;;8.00;5.25;;;;;11.37;100.00;101559.41;5017020;28;50973;-73
2023/04/02 07:45:57;;;;;;;;;7.67;7.67;;;;;11.36;100.00;101571.75;5009742;28;70905;-75
2023/04/02 07:48:22;;;;;;;;;9.00;5.00;;;;;11.37;100.00;101572.63;5017172;28;45471;-76
2023/04/02 07:50:47;;;;;;;;;6.00;5.00;;;;;11.35;100.00;101582.28;5009726;28;45703;-76
2023/04/02 07:53:33;;;;;;;;;8.50;5.25;;;;;11.34;100.00;101576.09;5012997;28;45587;-74
2023/04/02 07:56:01;;;;;;;;;7.75;6.00;;;;;11.33;100.00;101576.97;5016039;28;46473;-77
2023/04/02 07:58:28;;;;;;;;;11.25;7.25;;;;;11.33;100.00;101589.28;5011464;28;45568;-75
2023/04/02 08:00:53;;;;;;;;;8.00;6.33;;;;;11.32;100.00;101585.75;5016894;28;45273;-75
2023/04/02 08:03:18;;;;;;;;;7.00;7.00;;;;;11.30;100.00;101587.50;5014919;28;45635;-75
2023/04/02 08:05:55;;;;;;;;;12.50;6.50;;;;;11.33;100.00;101595.47;5010666;28;71111;-76
2023/04/02 08:08:21;;;;;;;;;8.00;7.00;;;;;11.35;100.00;101596.41;5010932;28;45447;-74
2023/04/02 08:10:47;;;;;;;;;15.50;9.50;;;;;11.33;100.00;101611.31;5017004;28;45365;-76
2023/04/02 08:13:13;;;;;;;;;8.25;8.00;;;;;11.32;100.00;101608.66;5013954;28;45617;-74
2023/04/02 08:15:38;;;;;;;;;12.75;9.50;;;;;11.32;100.00;101611.31;5013013;28;47269;-77
2023/04/02 08:18:04;;;;;;;;;10.75;8.50;;;;;11.31;100.00;101614.81;4997988;28;45551;-73
2023/04/02 08:20:30;;;;;;;;;10.00;9.00;;;;;11.27;100.00;101612.09;5014757;28;45594;-75
2023/04/02 08:22:57;;;;;;;;;10.25;8.50;;;;;11.28;100.00;101618.28;4995403;28;45433;-76
2023/04/02 08:25:22;;;;;;;;;9.50;9.00;;;;;11.27;100.00;101624.44;5012237;28;46510;-74
2023/04/02 08:27:48;;;;;;;;;13.50;9.25;;;;;11.28;100.00;101623.56;5009861;28;46104;-77
2023/04/02 08:30:16;;;;;;;;;13.75;12.75;;;;;11.25;100.00;101615.59;5010452;28;45455;-78
2023/04/02 08:32:42;;;;;;;;;11.50;10.75;;;;;11.27;100.00;101616.50;5013334;28;46032;-77
2023/04/02 08:35:09;;;;;;;;;10.75;9.00;;;;;11.33;100.00;101624.53;5015183;28;47583;-76
2023/04/02 08:37:35;;;;;;;;;12.00;10.25;;;;;11.40;100.00;101630.84;5009098;28;45454;-77
2023/04/02 08:40:00;;;;;;;;;10.25;8.75;;;;;11.48;100.00;101623.97;4992245;28;45545;-76
2023/04/02 08:42:45;;;;;;;;;10.25;9.75;;;;;11.61;100.00;101630.38;5006773;28;45578;-77
2023/04/02 08:45:28;;;;;;;;;10.50;8.00;;;;;11.72;100.00;101644.75;4990018;28;47426;-77
2023/04/02 08:47:55;;;;;;;;;8.67;8.00;;;;;11.80;100.00;101633.41;4989138;28;45480;-76
2023/04/02 08:50:33;;;;;;;;;10.75;8.75;;;;;11.88;100.00;101644.19;5011697;28;47879;-76
2023/04/02 08:53:01;;;;;;;;;11.75;10.00;;;;;11.95;100.00;101643.44;4988944;28;45408;-76
2023/04/02 08:55:41;;;;;;;;;11.00;9.67;;;;;12.01;100.00;101647.94;5010735;28;47582;-76
2023/04/02 08:58:19;;;;;;;;;9.00;8.25;;;;;12.05;100.00;101658.63;4986708;28;45516;-76
2023/04/02 09:00:46;;;;;;;;;8.00;7.00;;;;;12.04;100.00;101661.25;5009921;28;45500;-76
2023/04/02 09:03:17;;;;;;;;;8.50;6.75;;;;;12.05;100.00;101669.22;5093457;22;45543;-76
2023/04/02 09:05:44;;;;;;;;;12.75;8.75;;;;;12.06;100.00;101676.28;4994451;28;47624;-77
2023/04/02 09:08:23;;;;;;;;;9.33;8.00;;;;;12.06;100.00;101681.59;4995812;28;45458;-76
2023/04/02 09:10:53;;;;;;;;;11.50;10.50;;;;;12.06;100.00;101680.69;5010034;28;45622;-76
2023/04/02 09:13:24;;;;;;;;;11.33;7.67;;;;;12.05;100.00;101695.69;4996909;28;45377;-76
2023/04/02 09:16:15;;;;;;;;;8.00;8.00;;;;;12.01;100.00;101683.25;5013537;28;46444;-76
2023/04/02 09:18:41;;;;;;;;;9.67;9.67;;;;;12.03;100.00;101693.84;5006178;28;45434;-76
2023/04/02 09:21:33;;;;;;;;;9.00;8.25;;;;;12.10;100.00;101695.78;5015752;28;45369;-76
2023/04/02 09:23:58;;;;;;;;;9.00;8.00;;;;;12.15;100.00;101695.88;5016307;28;45501;-76
2023/04/02 09:26:30;;;;;;;;;10.00;6.33;;;;;12.17;100.00;101694.13;5014405;28;45950;-76
2023/04/02 09:29:24;;;;;;;;;9.67;9.00;;;;;12.25;100.00;101697.78;5012846;28;45487;-76
2023/04/02 09:32:00;;;;;;;;;10.50;10.50;;;;;12.25;100.00;101698.72;4970596;28;45537;-77
2023/04/02 09:34:31;;;;;;;;;8.75;7.25;;;;;12.29;100.00;101708.47;5013484;28;45441;-77
2023/04/02 09:37:11;;;;;;;;;10.00;8.00;;;;;12.30;100.00;101704.06;5015229;28;46721;-76
2023/04/02 09:39:37;;;;;;;;;9.00;9.00;;;;;12.38;100.00;101707.75;4990552;28;46184;-77
2023/04/02 09:42:25;;;;;;;;;11.33;10.00;;;;;12.40;100.00;101710.41;5013802;28;45546;-78
2023/04/02 09:44:50;;;;;;;;;11.33;9.00;;;;;12.46;100.00;101727.28;5012008;28;45357;-77
2023/04/02 09:47:26;;;;;;;;;7.67;5.00;;;;;12.49;100.00;101722.06;5008751;28;64735;-77
2023/04/02 09:49:51;;;;;;;;;9.00;6.67;;;;;12.47;100.00;101733.53;5013263;28;46465;-77
2023/04/02 09:52:20;;;;;;;;;9.67;8.33;;;;;12.49;100.00;101726.47;5009300;28;45798;-77
2023/04/02 09:54:47;;;;;;;;;8.33;8.00;;;;;12.50;100.00;101736.19;4995349;28;45604;-77
2023/04/02 09:57:24;;;;;;;;;15.75;10.25;;;;;12.50;100.00;101737.09;4989752;28;45268;-79
2023/04/02 10:00:15;;;;;;;;;8.50;7.50;;;;;12.55;100.00;101746.00;5008534;28;45360;-81
2023/04/02 10:02:42;;;;;;;;;9.00;8.67;;;;;12.60;100.00;101746.09;5012294;28;45598;-78
2023/04/02 10:05:20;;;;;;;;;10.00;6.00;;;;;12.64;100.00;101752.34;5012496;28;45236;-78
2023/04/02 10:07:48;;;;;;;;;5.33;4.33;;;;;12.71;100.00;101754.22;4992519;28;47639;-77
2023/04/02 10:10:30;;;;;;;;;8.00;5.33;;;;;12.74;100.00;101755.19;5011996;28;45562;-77
2023/04/02 10:13:24;;;;;;;;;6.00;6.00;;;;;12.73;100.00;101758.72;4973098;28;45600;-78
2023/04/02 10:15:55;;;;;;;;;6.00;6.00;;;;;12.70;100.00;101755.09;4991894;28;45560;-78
2023/04/02 10:18:47;;;;;;;;;8.00;5.00;;;;;12.67;100.00;101760.34;4995047;28;45726;-79
2023/04/02 10:21:17;;;;;;;;;10.67;6.00;;;;;12.63;100.00;101770.00;5010983;28;45487;-77
2023/04/02 10:23:42;;;;;;;;;6.00;5.00;;;;;12.65;100.00;101770.03;5008516;28;45447;-78
2023/04/02 10:26:19;;;;;;;;;11.00;8.00;;;;;12.63;100.00;101770.00;5011573;28;45554;-77
2023/04/02 10:29:10;;;;;;;;;7.33;7.33;;;;;12.64;100.00;101776.19;5006935;28;46430;-78
2023/04/02 10:31:47;;;;;;;;;9.00;6.67;;;;;12.67;100.00;101779.78;5012407;28;45449;-78
2023/04/02 10:34:22;;;;;;;;;11.00;6.00;;;;;12.72;100.00;101777.22;4999953;28;45517;-78
2023/04/02 10:36:53;;;;;;;;;14.75;9.75;;;;;12.78;100.00;101778.22;4999766;28;45626;-78
2023/04/02 10:39:23;;;;;;;;;20.00;14.00;;;;;12.82;100.00;101780.03;4997883;28;46581;-78
2023/04/02 10:41:58;;;;;;;;;9.67;9.67;;;;;12.88;100.00;101786.31;5015381;28;45414;-77
2023/04/02 10:44:27;;;;;;;;;16.33;11.67;;;;;12.92;100.00;101781.09;4992950;28;45333;-79
2023/04/02 10:47:17;;;;;;;;;13.33;9.33;;;;;12.90;100.00;101788.13;5017277;28;45240;-78
2023/04/02 10:49:52;;;;;;;;;12.00;10.00;;;;;12.86;100.00;101799.56;5015628;28;47971;-78
2023/04/02 10:52:25;;;;;;;;;12.00;10.00;;;;;12.85;100.00;101796.00;5017982;28;45234;-78
2023/04/02 10:54:53;;;;;;;;;19.75;18.75;;;;;12.83;100.00;101795.06;5001104;28;45972;-77
2023/04/02 10:57:36;;;;;;;;;17.25;15.00;;;;;12.86;100.00;101796.91;5000668;28;45539;-79
2023/04/02 11:00:10;;;;;;;;;23.50;18.00;;;;;12.93;100.00;101795.25;5013312;28;47281;-78
2023/04/02 11:02:45;;;;;;;;;34.00;25.25;;;;;12.99;100.00;101801.53;5011354;28;46740;-78
2023/04/02 11:05:17;;;;;;;;;15.00;13.50;;;;;13.06;100.00;101810.50;5016364;28;45217;-78
2023/04/02 11:07:56;;;;;;;;;19.75;12.75;;;;;13.08;100.00;101798.16;5000466;28;45727;-78
2023/04/02 11:10:22;;;;;;;;;13.75;11.50;;;;;13.15;100.00;101804.44;5000439;28;47471;-78
2023/04/02 11:13:01;;;;;;;;;13.00;12.25;;;;;13.19;100.00;101808.94;4999991;28;45376;-78
2023/04/02 11:15:27;;;;;;;;;16.75;12.75;;;;;13.24;100.00;101813.47;4997109;28;45334;-78
2023/04/02 11:17:53;;;;;;;;;18.67;11.67;;;;;13.23;100.00;101808.16;4999222;28;66151;-79
2023/04/02 11:20:45;;;;;;;;;17.00;12.33;;;;;13.24;100.00;101823.19;4999391;28;47231;-79
2023/04/02 11:23:12;;;;;;;;;12.33;11.33;;;;;13.25;100.00;101824.97;5017904;28;45494;-79
2023/04/02 11:25:37;;;;;;;;;27.33;15.33;;;;;13.27;100.00;101815.28;4997529;28;45274;-78
2023/04/02 11:28:26;;;;;;;;;14.00;10.00;;;;;13.32;100.00;101824.22;5013913;28;45696;-77
2023/04/02 11:30:52;;;;;;;;;11.00;9.67;;;;;13.30;100.00;101834.78;4993852;28;46977;-78
2023/04/02 11:33:29;;;;;;;;;11.33;10.67;;;;;13.32;100.00;101827.75;5000026;28;45493;-78
2023/04/02 11:35:55;;;;;;;;;14.00;12.00;;;;;13.32;100.00;101833.06;5016156;28;45540;-77
2023/04/02 11:38:24;;;;;;;;;18.67;11.00;;;;;13.31;100.00;101839.19;5017272;28;45356;-78
2023/04/02 11:40:53;;;;;;;;;11.67;11.00;;;;;13.30;100.00;101837.44;5016478;28;46573;-78